sensor_id;sensor_type;location;lat;lon;timestamp;P1;durP1;ratioP1;P2;durP2;ratioP2
60588;SDS011;46421;48.610;9.334;2024-01-16T00:00:19;4.00;;;1.08;;
60588;SDS011;46421;48.610;9.334;2024-01-16T00:02:45;2.85;;;1.10;;
60588;SDS011;46421;48.610;9.334;2024-01-16T00:05:10;3.60;;;1.02;;
60588;SDS011;46421;48.610;9.334;2024-01-16T00:07:38;3.80;;;1.05;;
60588;SDS011;46421;48.610;9.334;2024-01-16T00:10:04;1.98;;;0.77;;
60588;SDS011;46421;48.610;9.334;2024-01-16T00:12:30;1.95;;;0.80;;
60588;SDS011;46421;48.610;9.334;2024-01-16T00:14:55;2.57;;;0.93;;
60588;SDS011;46421;48.610;9.334;2024-01-16T00:17:20;3.15;;;1.08;;
60588;SDS011;46421;48.610;9.334;2024-01-16T00:19:46;2.57;;;1.10;;
60588;SDS011;46421;48.610;9.334;2024-01-16T00:22:11;2.30;;;0.57;;
60588;SDS011;46421;48.610;9.334;2024-01-16T00:24:36;3.07;;;0.87;;
60588;SDS011;46421;48.610;9.334;2024-01-16T00:27:02;3.47;;;1.07;;
60588;SDS011;46421;48.610;9.334;2024-01-16T00:29:27;1.98;;;0.93;;
60588;SDS011;46421;48.610;9.334;2024-01-16T00:31:53;5.65;;;1.30;;
60588;SDS011;46421;48.610;9.334;2024-01-16T00:34:18;5.67;;;1.93;;
60588;SDS011;46421;48.610;9.334;2024-01-16T00:36:43;3.73;;;1.60;;
60588;SDS011;46421;48.610;9.334;2024-01-16T00:39:09;2.23;;;0.70;;
60588;SDS011;46421;48.610;9.334;2024-01-16T00:41:34;2.63;;;0.65;;
60588;SDS011;46421;48.610;9.334;2024-01-16T00:44:00;2.60;;;0.98;;
60588;SDS011;46421;48.610;9.334;2024-01-16T00:46:25;2.17;;;0.70;;
60588;SDS011;46421;48.610;9.334;2024-01-16T00:48:50;3.63;;;1.30;;
60588;SDS011;46421;48.610;9.334;2024-01-16T00:51:16;3.37;;;1.47;;
60588;SDS011;46421;48.610;9.334;2024-01-16T00:53:41;2.20;;;1.17;;
60588;SDS011;46421;48.610;9.334;2024-01-16T00:56:07;2.05;;;0.55;;
60588;SDS011;46421;48.610;9.334;2024-01-16T00:58:32;2.45;;;0.90;;
60588;SDS011;46421;48.610;9.334;2024-01-16T01:00:58;3.20;;;0.90;;
60588;SDS011;46421;48.610;9.334;2024-01-16T01:03:23;2.93;;;1.10;;
60588;SDS011;46421;48.610;9.334;2024-01-16T01:05:49;2.20;;;0.87;;
60588;SDS011;46421;48.610;9.334;2024-01-16T01:08:14;2.80;;;1.00;;
60588;SDS011;46421;48.610;9.334;2024-01-16T01:10:39;3.87;;;1.80;;
60588;SDS011;46421;48.610;9.334;2024-01-16T01:13:05;2.72;;;1.13;;
60588;SDS011;46421;48.610;9.334;2024-01-16T01:15:30;4.33;;;1.20;;
60588;SDS011;46421;48.610;9.334;2024-01-16T01:17:56;2.35;;;0.77;;
60588;SDS011;46421;48.610;9.334;2024-01-16T01:20:21;1.73;;;0.53;;
60588;SDS011;46421;48.610;9.334;2024-01-16T01:22:46;4.78;;;1.15;;
60588;SDS011;46421;48.610;9.334;2024-01-16T01:25:12;3.42;;;1.00;;
60588;SDS011;46421;48.610;9.334;2024-01-16T01:27:38;3.53;;;1.23;;
60588;SDS011;46421;48.610;9.334;2024-01-16T01:30:04;2.10;;;0.93;;
60588;SDS011;46421;48.610;9.334;2024-01-16T01:32:30;2.33;;;0.80;;
60588;SDS011;46421;48.610;9.334;2024-01-16T01:34:56;5.90;;;1.00;;
60588;SDS011;46421;48.610;9.334;2024-01-16T01:37:21;4.43;;;1.63;;
60588;SDS011;46421;48.610;9.334;2024-01-16T01:39:46;2.75;;;1.20;;
60588;SDS011;46421;48.610;9.334;2024-01-16T01:42:12;2.53;;;1.20;;
60588;SDS011;46421;48.610;9.334;2024-01-16T01:44:37;2.27;;;0.97;;
60588;SDS011;46421;48.610;9.334;2024-01-16T01:47:03;4.47;;;0.93;;
60588;SDS011;46421;48.610;9.334;2024-01-16T01:49:30;2.10;;;1.13;;
60588;SDS011;46421;48.610;9.334;2024-01-16T01:51:56;2.67;;;0.80;;
60588;SDS011;46421;48.610;9.334;2024-01-16T01:54:21;3.63;;;0.80;;
60588;SDS011;46421;48.610;9.334;2024-01-16T01:56:47;2.88;;;1.20;;
60588;SDS011;46421;48.610;9.334;2024-01-16T01:59:14;2.40;;;0.98;;
60588;SDS011;46421;48.610;9.334;2024-01-16T02:01:40;3.38;;;1.17;;
60588;SDS011;46421;48.610;9.334;2024-01-16T02:04:06;1.35;;;0.68;;
60588;SDS011;46421;48.610;9.334;2024-01-16T02:06:31;5.45;;;1.27;;
60588;SDS011;46421;48.610;9.334;2024-01-16T02:08:57;3.63;;;0.88;;
60588;SDS011;46421;48.610;9.334;2024-01-16T02:11:23;3.30;;;1.05;;
60588;SDS011;46421;48.610;9.334;2024-01-16T02:13:49;3.35;;;1.25;;
60588;SDS011;46421;48.610;9.334;2024-01-16T02:16:18;3.53;;;1.37;;
60588;SDS011;46421;48.610;9.334;2024-01-16T02:18:44;2.13;;;0.75;;
60588;SDS011;46421;48.610;9.334;2024-01-16T02:21:09;2.10;;;0.70;;
60588;SDS011;46421;48.610;9.334;2024-01-16T02:23:35;2.40;;;0.95;;
60588;SDS011;46421;48.610;9.334;2024-01-16T02:26:01;3.38;;;1.23;;
60588;SDS011;46421;48.610;9.334;2024-01-16T02:28:27;3.63;;;1.38;;
60588;SDS011;46421;48.610;9.334;2024-01-16T02:30:52;2.35;;;0.90;;
60588;SDS011;46421;48.610;9.334;2024-01-16T02:33:18;2.07;;;0.90;;
60588;SDS011;46421;48.610;9.334;2024-01-16T02:35:43;3.20;;;1.10;;
60588;SDS011;46421;48.610;9.334;2024-01-16T02:38:08;4.33;;;1.13;;
60588;SDS011;46421;48.610;9.334;2024-01-16T02:40:34;2.38;;;1.00;;
60588;SDS011;46421;48.610;9.334;2024-01-16T02:42:59;1.70;;;0.88;;
60588;SDS011;46421;48.610;9.334;2024-01-16T02:45:25;4.90;;;1.03;;
60588;SDS011;46421;48.610;9.334;2024-01-16T02:47:50;4.57;;;1.10;;
60588;SDS011;46421;48.610;9.334;2024-01-16T02:50:15;3.67;;;1.20;;
60588;SDS011;46421;48.610;9.334;2024-01-16T02:52:41;3.10;;;1.10;;
60588;SDS011;46421;48.610;9.334;2024-01-16T02:55:06;3.55;;;1.10;;
60588;SDS011;46421;48.610;9.334;2024-01-16T02:57:32;1.75;;;0.65;;
60588;SDS011;46421;48.610;9.334;2024-01-16T02:59:58;3.25;;;1.15;;
60588;SDS011;46421;48.610;9.334;2024-01-16T03:02:23;3.53;;;1.20;;
60588;SDS011;46421;48.610;9.334;2024-01-16T03:04:49;2.35;;;1.17;;
60588;SDS011;46421;48.610;9.334;2024-01-16T03:07:15;4.30;;;1.27;;
60588;SDS011;46421;48.610;9.334;2024-01-16T03:09:40;6.40;;;1.30;;
60588;SDS011;46421;48.610;9.334;2024-01-16T03:12:06;2.22;;;0.88;;
60588;SDS011;46421;48.610;9.334;2024-01-16T03:14:31;4.72;;;1.30;;
60588;SDS011;46421;48.610;9.334;2024-01-16T03:17:01;3.70;;;1.40;;
60588;SDS011;46421;48.610;9.334;2024-01-16T03:19:26;3.05;;;0.95;;
60588;SDS011;46421;48.610;9.334;2024-01-16T03:21:52;3.30;;;1.30;;
60588;SDS011;46421;48.610;9.334;2024-01-16T03:24:17;4.27;;;1.40;;
60588;SDS011;46421;48.610;9.334;2024-01-16T03:26:42;3.37;;;0.97;;
60588;SDS011;46421;48.610;9.334;2024-01-16T03:29:08;2.53;;;1.15;;
60588;SDS011;46421;48.610;9.334;2024-01-16T03:31:35;1.95;;;0.70;;
60588;SDS011;46421;48.610;9.334;2024-01-16T03:34:00;1.07;;;0.47;;
60588;SDS011;46421;48.610;9.334;2024-01-16T03:36:26;2.22;;;0.60;;
60588;SDS011;46421;48.610;9.334;2024-01-16T03:38:52;2.70;;;1.10;;
60588;SDS011;46421;48.610;9.334;2024-01-16T03:41:17;3.13;;;0.87;;
60588;SDS011;46421;48.610;9.334;2024-01-16T03:43:43;2.20;;;1.00;;
60588;SDS011;46421;48.610;9.334;2024-01-16T03:46:10;5.47;;;1.53;;
60588;SDS011;46421;48.610;9.334;2024-01-16T03:48:36;4.88;;;1.23;;
60588;SDS011;46421;48.610;9.334;2024-01-16T03:51:01;3.72;;;1.10;;
60588;SDS011;46421;48.610;9.334;2024-01-16T03:53:27;4.78;;;1.10;;
60588;SDS011;46421;48.610;9.334;2024-01-16T03:55:53;1.40;;;0.65;;
60588;SDS011;46421;48.610;9.334;2024-01-16T03:58:18;2.30;;;1.00;;
60588;SDS011;46421;48.610;9.334;2024-01-16T04:00:44;4.47;;;1.08;;
60588;SDS011;46421;48.610;9.334;2024-01-16T04:03:09;2.35;;;0.93;;
60588;SDS011;46421;48.610;9.334;2024-01-16T04:05:34;2.95;;;0.80;;
60588;SDS011;46421;48.610;9.334;2024-01-16T04:08:00;3.13;;;0.87;;
60588;SDS011;46421;48.610;9.334;2024-01-16T04:10:25;4.53;;;1.17;;
60588;SDS011;46421;48.610;9.334;2024-01-16T04:12:51;1.50;;;0.75;;
60588;SDS011;46421;48.610;9.334;2024-01-16T04:15:16;2.75;;;1.15;;
60588;SDS011;46421;48.610;9.334;2024-01-16T04:17:42;2.33;;;0.90;;
60588;SDS011;46421;48.610;9.334;2024-01-16T04:20:07;2.28;;;1.00;;
60588;SDS011;46421;48.610;9.334;2024-01-16T04:22:34;3.05;;;1.00;;
60588;SDS011;46421;48.610;9.334;2024-01-16T04:24:59;4.65;;;1.27;;
60588;SDS011;46421;48.610;9.334;2024-01-16T04:27:25;3.10;;;0.93;;
60588;SDS011;46421;48.610;9.334;2024-01-16T04:29:50;1.92;;;0.77;;
60588;SDS011;46421;48.610;9.334;2024-01-16T04:32:16;1.25;;;0.68;;
60588;SDS011;46421;48.610;9.334;2024-01-16T04:34:41;3.65;;;1.10;;
60588;SDS011;46421;48.610;9.334;2024-01-16T04:37:07;3.20;;;0.97;;
60588;SDS011;46421;48.610;9.334;2024-01-16T04:39:32;2.50;;;0.98;;
60588;SDS011;46421;48.610;9.334;2024-01-16T04:41:57;5.15;;;1.67;;
60588;SDS011;46421;48.610;9.334;2024-01-16T04:44:23;5.95;;;1.65;;
60588;SDS011;46421;48.610;9.334;2024-01-16T04:46:48;1.80;;;0.80;;
60588;SDS011;46421;48.610;9.334;2024-01-16T04:49:13;2.43;;;1.10;;
60588;SDS011;46421;48.610;9.334;2024-01-16T04:51:39;3.40;;;1.20;;
60588;SDS011;46421;48.610;9.334;2024-01-16T04:54:04;3.33;;;0.93;;
60588;SDS011;46421;48.610;9.334;2024-01-16T04:56:30;1.98;;;0.75;;
60588;SDS011;46421;48.610;9.334;2024-01-16T04:58:55;4.95;;;1.13;;
60588;SDS011;46421;48.610;9.334;2024-01-16T05:01:20;2.07;;;1.00;;
60588;SDS011;46421;48.610;9.334;2024-01-16T05:03:46;4.80;;;1.30;;
60588;SDS011;46421;48.610;9.334;2024-01-16T05:06:12;2.47;;;0.90;;
60588;SDS011;46421;48.610;9.334;2024-01-16T05:08:38;1.75;;;0.55;;
60588;SDS011;46421;48.610;9.334;2024-01-16T05:11:04;4.40;;;1.20;;
60588;SDS011;46421;48.610;9.334;2024-01-16T05:13:29;1.77;;;0.67;;
60588;SDS011;46421;48.610;9.334;2024-01-16T05:15:55;4.05;;;1.02;;
60588;SDS011;46421;48.610;9.334;2024-01-16T05:18:20;2.47;;;1.02;;
60588;SDS011;46421;48.610;9.334;2024-01-16T05:20:45;3.27;;;1.40;;
60588;SDS011;46421;48.610;9.334;2024-01-16T05:23:11;3.13;;;1.17;;
60588;SDS011;46421;48.610;9.334;2024-01-16T05:25:36;1.80;;;0.70;;
60588;SDS011;46421;48.610;9.334;2024-01-16T05:28:02;3.97;;;0.90;;
60588;SDS011;46421;48.610;9.334;2024-01-16T05:30:28;1.90;;;0.60;;
60588;SDS011;46421;48.610;9.334;2024-01-16T05:32:54;6.18;;;1.52;;
60588;SDS011;46421;48.610;9.334;2024-01-16T05:35:19;3.03;;;1.08;;
60588;SDS011;46421;48.610;9.334;2024-01-16T05:37:44;4.27;;;0.70;;
60588;SDS011;46421;48.610;9.334;2024-01-16T05:40:10;4.10;;;1.20;;
60588;SDS011;46421;48.610;9.334;2024-01-16T05:42:36;2.80;;;0.98;;
60588;SDS011;46421;48.610;9.334;2024-01-16T05:45:02;2.67;;;1.08;;
60588;SDS011;46421;48.610;9.334;2024-01-16T05:47:28;1.25;;;0.73;;
60588;SDS011;46421;48.610;9.334;2024-01-16T05:49:54;1.40;;;0.60;;
60588;SDS011;46421;48.610;9.334;2024-01-16T05:52:19;1.20;;;0.50;;
60588;SDS011;46421;48.610;9.334;2024-01-16T05:54:45;3.28;;;1.23;;
60588;SDS011;46421;48.610;9.334;2024-01-16T05:57:10;2.65;;;0.93;;
60588;SDS011;46421;48.610;9.334;2024-01-16T05:59:35;2.53;;;0.80;;
60588;SDS011;46421;48.610;9.334;2024-01-16T06:02:01;3.33;;;1.00;;
60588;SDS011;46421;48.610;9.334;2024-01-16T06:04:26;2.73;;;0.93;;
60588;SDS011;46421;48.610;9.334;2024-01-16T06:06:52;2.92;;;1.08;;
60588;SDS011;46421;48.610;9.334;2024-01-16T06:09:17;2.50;;;1.00;;
60588;SDS011;46421;48.610;9.334;2024-01-16T06:11:43;3.22;;;1.17;;
60588;SDS011;46421;48.610;9.334;2024-01-16T06:14:09;2.80;;;0.80;;
60588;SDS011;46421;48.610;9.334;2024-01-16T06:16:35;3.05;;;0.90;;
60588;SDS011;46421;48.610;9.334;2024-01-16T06:19:00;3.47;;;1.10;;
60588;SDS011;46421;48.610;9.334;2024-01-16T06:21:26;2.75;;;0.90;;
60588;SDS011;46421;48.610;9.334;2024-01-16T06:23:52;4.47;;;1.00;;
60588;SDS011;46421;48.610;9.334;2024-01-16T06:26:17;5.13;;;1.00;;
60588;SDS011;46421;48.610;9.334;2024-01-16T06:28:43;3.83;;;1.00;;
60588;SDS011;46421;48.610;9.334;2024-01-16T06:31:08;2.40;;;1.00;;
60588;SDS011;46421;48.610;9.334;2024-01-16T06:33:34;2.60;;;0.77;;
60588;SDS011;46421;48.610;9.334;2024-01-16T06:35:59;3.63;;;1.00;;
60588;SDS011;46421;48.610;9.334;2024-01-16T06:38:25;2.17;;;0.60;;
60588;SDS011;46421;48.610;9.334;2024-01-16T06:40:50;3.83;;;0.95;;
60588;SDS011;46421;48.610;9.334;2024-01-16T06:43:16;4.77;;;1.33;;
60588;SDS011;46421;48.610;9.334;2024-01-16T06:45:43;0.98;;;0.50;;
60588;SDS011;46421;48.610;9.334;2024-01-16T06:48:09;3.95;;;0.70;;
60588;SDS011;46421;48.610;9.334;2024-01-16T06:50:35;3.80;;;1.02;;
60588;SDS011;46421;48.610;9.334;2024-01-16T06:53:00;3.75;;;1.38;;
60588;SDS011;46421;48.610;9.334;2024-01-16T06:55:26;4.03;;;0.93;;
60588;SDS011;46421;48.610;9.334;2024-01-16T06:57:51;3.10;;;0.83;;
60588;SDS011;46421;48.610;9.334;2024-01-16T07:00:17;3.33;;;1.13;;
60588;SDS011;46421;48.610;9.334;2024-01-16T07:02:42;2.28;;;0.95;;
60588;SDS011;46421;48.610;9.334;2024-01-16T07:05:08;2.35;;;0.88;;
60588;SDS011;46421;48.610;9.334;2024-01-16T07:07:34;5.00;;;1.52;;
60588;SDS011;46421;48.610;9.334;2024-01-16T07:09:59;5.87;;;1.70;;
60588;SDS011;46421;48.610;9.334;2024-01-16T07:12:25;3.47;;;1.30;;
60588;SDS011;46421;48.610;9.334;2024-01-16T07:14:50;2.40;;;1.13;;
60588;SDS011;46421;48.610;9.334;2024-01-16T07:17:16;4.30;;;1.15;;
60588;SDS011;46421;48.610;9.334;2024-01-16T07:19:41;2.27;;;1.30;;
60588;SDS011;46421;48.610;9.334;2024-01-16T07:22:06;3.78;;;1.35;;
60588;SDS011;46421;48.610;9.334;2024-01-16T07:24:32;4.00;;;1.50;;
60588;SDS011;46421;48.610;9.334;2024-01-16T07:26:57;5.07;;;1.37;;
60588;SDS011;46421;48.610;9.334;2024-01-16T07:29:23;6.57;;;1.63;;
60588;SDS011;46421;48.610;9.334;2024-01-16T07:31:48;3.83;;;1.43;;
60588;SDS011;46421;48.610;9.334;2024-01-16T07:34:14;7.70;;;2.03;;
60588;SDS011;46421;48.610;9.334;2024-01-16T07:36:44;5.28;;;1.60;;
60588;SDS011;46421;48.610;9.334;2024-01-16T07:39:10;3.17;;;1.50;;
60588;SDS011;46421;48.610;9.334;2024-01-16T07:41:35;3.03;;;1.27;;
60588;SDS011;46421;48.610;9.334;2024-01-16T07:44:01;4.90;;;1.50;;
60588;SDS011;46421;48.610;9.334;2024-01-16T07:46:26;7.85;;;1.90;;
60588;SDS011;46421;48.610;9.334;2024-01-16T07:48:55;5.18;;;1.60;;
60588;SDS011;46421;48.610;9.334;2024-01-16T07:51:20;3.87;;;1.40;;
60588;SDS011;46421;48.610;9.334;2024-01-16T07:53:46;4.60;;;1.35;;
60588;SDS011;46421;48.610;9.334;2024-01-16T07:56:11;6.88;;;1.70;;
60588;SDS011;46421;48.610;9.334;2024-01-16T07:58:37;6.45;;;1.60;;
60588;SDS011;46421;48.610;9.334;2024-01-16T08:01:03;5.32;;;1.30;;
60588;SDS011;46421;48.610;9.334;2024-01-16T08:03:28;4.95;;;1.60;;
60588;SDS011;46421;48.610;9.334;2024-01-16T08:05:53;4.37;;;1.77;;
60588;SDS011;46421;48.610;9.334;2024-01-16T08:08:19;4.57;;;1.77;;
60588;SDS011;46421;48.610;9.334;2024-01-16T08:10:44;3.10;;;1.33;;
60588;SDS011;46421;48.610;9.334;2024-01-16T08:13:09;4.05;;;1.67;;
60588;SDS011;46421;48.610;9.334;2024-01-16T08:15:35;3.83;;;1.17;;
60588;SDS011;46421;48.610;9.334;2024-01-16T08:18:00;5.60;;;1.80;;
60588;SDS011;46421;48.610;9.334;2024-01-16T08:20:26;6.60;;;1.60;;
60588;SDS011;46421;48.610;9.334;2024-01-16T08:22:51;3.15;;;1.15;;
60588;SDS011;46421;48.610;9.334;2024-01-16T08:25:17;7.32;;;1.50;;
60588;SDS011;46421;48.610;9.334;2024-01-16T08:27:42;3.85;;;1.25;;
60588;SDS011;46421;48.610;9.334;2024-01-16T08:30:08;3.72;;;1.17;;
60588;SDS011;46421;48.610;9.334;2024-01-16T08:32:35;3.75;;;1.38;;
60588;SDS011;46421;48.610;9.334;2024-01-16T08:35:00;5.72;;;1.27;;
60588;SDS011;46421;48.610;9.334;2024-01-16T08:37:25;4.57;;;1.40;;
60588;SDS011;46421;48.610;9.334;2024-01-16T08:39:51;4.97;;;1.55;;
60588;SDS011;46421;48.610;9.334;2024-01-16T08:42:17;5.13;;;1.35;;
60588;SDS011;46421;48.610;9.334;2024-01-16T08:44:43;4.47;;;1.65;;
60588;SDS011;46421;48.610;9.334;2024-01-16T08:47:08;4.57;;;1.60;;
60588;SDS011;46421;48.610;9.334;2024-01-16T08:49:34;4.28;;;1.58;;
60588;SDS011;46421;48.610;9.334;2024-01-16T08:52:00;7.20;;;1.80;;
60588;SDS011;46421;48.610;9.334;2024-01-16T08:54:26;4.43;;;1.90;;
60588;SDS011;46421;48.610;9.334;2024-01-16T08:56:52;3.38;;;1.45;;
60588;SDS011;46421;48.610;9.334;2024-01-16T08:59:17;3.88;;;1.80;;
60588;SDS011;46421;48.610;9.334;2024-01-16T09:01:43;3.72;;;1.58;;
60588;SDS011;46421;48.610;9.334;2024-01-16T09:04:08;6.63;;;1.55;;
60588;SDS011;46421;48.610;9.334;2024-01-16T09:06:33;5.03;;;1.88;;
60588;SDS011;46421;48.610;9.334;2024-01-16T09:08:59;2.77;;;1.37;;
60588;SDS011;46421;48.610;9.334;2024-01-16T09:11:24;6.63;;;1.50;;
60588;SDS011;46421;48.610;9.334;2024-01-16T09:13:50;6.55;;;2.28;;
60588;SDS011;46421;48.610;9.334;2024-01-16T09:16:16;4.32;;;1.63;;
60588;SDS011;46421;48.610;9.334;2024-01-16T09:18:42;5.63;;;2.10;;
60588;SDS011;46421;48.610;9.334;2024-01-16T09:21:07;7.33;;;1.73;;
60588;SDS011;46421;48.610;9.334;2024-01-16T09:23:32;4.30;;;1.60;;
60588;SDS011;46421;48.610;9.334;2024-01-16T09:25:58;4.50;;;2.03;;
60588;SDS011;46421;48.610;9.334;2024-01-16T09:28:23;3.57;;;1.47;;
60588;SDS011;46421;48.610;9.334;2024-01-16T09:30:49;4.93;;;2.20;;
60588;SDS011;46421;48.610;9.334;2024-01-16T09:33:15;4.82;;;1.80;;
60588;SDS011;46421;48.610;9.334;2024-01-16T09:35:43;5.22;;;1.70;;
60588;SDS011;46421;48.610;9.334;2024-01-16T09:38:09;6.43;;;2.00;;
60588;SDS011;46421;48.610;9.334;2024-01-16T09:40:34;5.47;;;1.87;;
60588;SDS011;46421;48.610;9.334;2024-01-16T09:43:00;3.88;;;1.48;;
60588;SDS011;46421;48.610;9.334;2024-01-16T09:45:26;6.35;;;1.98;;
60588;SDS011;46421;48.610;9.334;2024-01-16T09:47:52;3.90;;;1.80;;
60588;SDS011;46421;48.610;9.334;2024-01-16T09:50:18;5.50;;;1.63;;
60588;SDS011;46421;48.610;9.334;2024-01-16T09:52:47;7.13;;;2.10;;
60588;SDS011;46421;48.610;9.334;2024-01-16T09:55:13;6.03;;;2.10;;
60588;SDS011;46421;48.610;9.334;2024-01-16T09:57:41;5.97;;;1.90;;
60588;SDS011;46421;48.610;9.334;2024-01-16T10:00:11;7.05;;;2.13;;
60588;SDS011;46421;48.610;9.334;2024-01-16T10:02:40;7.32;;;2.55;;
60588;SDS011;46421;48.610;9.334;2024-01-16T10:05:06;6.72;;;2.33;;
60588;SDS011;46421;48.610;9.334;2024-01-16T10:07:33;5.32;;;2.42;;
60588;SDS011;46421;48.610;9.334;2024-01-16T10:10:00;6.05;;;2.00;;
60588;SDS011;46421;48.610;9.334;2024-01-16T10:12:26;6.00;;;2.28;;
60588;SDS011;46421;48.610;9.334;2024-01-16T10:14:51;8.40;;;1.92;;
60588;SDS011;46421;48.610;9.334;2024-01-16T10:17:18;4.75;;;1.73;;
60588;SDS011;46421;48.610;9.334;2024-01-16T10:19:51;5.72;;;2.08;;
60588;SDS011;46421;48.610;9.334;2024-01-16T10:22:21;4.38;;;1.88;;
60588;SDS011;46421;48.610;9.334;2024-01-16T10:24:49;5.03;;;1.98;;
60588;SDS011;46421;48.610;9.334;2024-01-16T10:27:16;5.38;;;2.00;;
60588;SDS011;46421;48.610;9.334;2024-01-16T10:29:57;4.95;;;2.03;;
60588;SDS011;46421;48.610;9.334;2024-01-16T10:32:29;7.45;;;2.03;;
60588;SDS011;46421;48.610;9.334;2024-01-16T10:35:05;5.50;;;1.83;;
60588;SDS011;46421;48.610;9.334;2024-01-16T10:37:46;5.60;;;2.25;;
60588;SDS011;46421;48.610;9.334;2024-01-16T10:43:03;4.65;;;1.88;;
60588;SDS011;46421;48.610;9.334;2024-01-16T10:45:29;5.60;;;1.77;;
60588;SDS011;46421;48.610;9.334;2024-01-16T10:48:05;8.13;;;2.55;;
60588;SDS011;46421;48.610;9.334;2024-01-16T10:50:31;4.65;;;2.13;;
60588;SDS011;46421;48.610;9.334;2024-01-16T10:53:05;8.15;;;2.10;;
60588;SDS011;46421;48.610;9.334;2024-01-16T10:55:32;7.13;;;2.50;;
60588;SDS011;46421;48.610;9.334;2024-01-16T10:58:23;7.13;;;2.28;;
60588;SDS011;46421;48.610;9.334;2024-01-16T11:00:50;5.80;;;1.73;;
60588;SDS011;46421;48.610;9.334;2024-01-16T11:03:24;8.70;;;2.20;;
60588;SDS011;46421;48.610;9.334;2024-01-16T11:05:51;6.43;;;2.05;;
60588;SDS011;46421;48.610;9.334;2024-01-16T11:08:17;7.70;;;1.88;;
60588;SDS011;46421;48.610;9.334;2024-01-16T11:10:43;5.07;;;1.80;;
60588;SDS011;46421;48.610;9.334;2024-01-16T11:13:09;6.25;;;2.10;;
60588;SDS011;46421;48.610;9.334;2024-01-16T11:15:35;5.70;;;1.85;;
60588;SDS011;46421;48.610;9.334;2024-01-16T11:18:03;3.92;;;1.73;;
60588;SDS011;46421;48.610;9.334;2024-01-16T11:20:29;4.65;;;1.98;;
60588;SDS011;46421;48.610;9.334;2024-01-16T11:22:55;4.40;;;2.05;;
60588;SDS011;46421;48.610;9.334;2024-01-16T11:25:30;4.93;;;2.20;;
60588;SDS011;46421;48.610;9.334;2024-01-16T11:27:56;5.88;;;2.17;;
60588;SDS011;46421;48.610;9.334;2024-01-16T11:30:33;6.72;;;2.47;;
60588;SDS011;46421;48.610;9.334;2024-01-16T11:32:59;3.90;;;1.70;;
60588;SDS011;46421;48.610;9.334;2024-01-16T11:35:35;7.28;;;2.10;;
60588;SDS011;46421;48.610;9.334;2024-01-16T11:38:14;5.28;;;2.10;;
60588;SDS011;46421;48.610;9.334;2024-01-16T11:40:44;5.97;;;2.25;;
60588;SDS011;46421;48.610;9.334;2024-01-16T11:45:56;4.55;;;2.05;;
60588;SDS011;46421;48.610;9.334;2024-01-16T11:48:23;5.55;;;2.33;;
60588;SDS011;46421;48.610;9.334;2024-01-16T11:50:49;5.90;;;2.22;;
60588;SDS011;46421;48.610;9.334;2024-01-16T11:59:01;7.78;;;2.35;;
60588;SDS011;46421;48.610;9.334;2024-01-16T12:01:36;8.40;;;2.60;;
60588;SDS011;46421;48.610;9.334;2024-01-16T12:04:04;6.13;;;2.80;;
60588;SDS011;46421;48.610;9.334;2024-01-16T12:06:30;7.40;;;3.00;;
60588;SDS011;46421;48.610;9.334;2024-01-16T12:09:10;5.97;;;2.58;;
60588;SDS011;46421;48.610;9.334;2024-01-16T12:11:36;5.93;;;2.58;;
60588;SDS011;46421;48.610;9.334;2024-01-16T12:14:01;6.35;;;2.65;;
60588;SDS011;46421;48.610;9.334;2024-01-16T12:16:27;6.72;;;2.53;;
60588;SDS011;46421;48.610;9.334;2024-01-16T12:19:03;6.25;;;2.40;;
60588;SDS011;46421;48.610;9.334;2024-01-16T12:21:30;5.82;;;1.92;;
60588;SDS011;46421;48.610;9.334;2024-01-16T12:23:58;4.80;;;2.03;;
60588;SDS011;46421;48.610;9.334;2024-01-16T12:26:23;4.97;;;1.60;;
60588;SDS011;46421;48.610;9.334;2024-01-16T12:28:52;3.17;;;1.17;;
60588;SDS011;46421;48.610;9.334;2024-01-16T12:31:18;3.35;;;1.20;;
60588;SDS011;46421;48.610;9.334;2024-01-16T12:33:43;3.03;;;1.38;;
60588;SDS011;46421;48.610;9.334;2024-01-16T12:36:09;5.32;;;2.00;;
60588;SDS011;46421;48.610;9.334;2024-01-16T12:38:35;4.95;;;1.48;;
60588;SDS011;46421;48.610;9.334;2024-01-16T12:41:01;4.85;;;2.00;;
60588;SDS011;46421;48.610;9.334;2024-01-16T12:43:27;7.07;;;2.05;;
60588;SDS011;46421;48.610;9.334;2024-01-16T12:45:56;4.45;;;1.42;;
60588;SDS011;46421;48.610;9.334;2024-01-16T12:48:25;4.90;;;1.73;;
60588;SDS011;46421;48.610;9.334;2024-01-16T12:50:51;8.18;;;1.98;;
60588;SDS011;46421;48.610;9.334;2024-01-16T12:53:16;4.28;;;1.52;;
60588;SDS011;46421;48.610;9.334;2024-01-16T12:55:44;4.25;;;1.63;;
60588;SDS011;46421;48.610;9.334;2024-01-16T12:58:17;3.80;;;1.48;;
60588;SDS011;46421;48.610;9.334;2024-01-16T13:00:48;6.25;;;1.50;;
60588;SDS011;46421;48.610;9.334;2024-01-16T13:03:21;6.88;;;1.67;;
60588;SDS011;46421;48.610;9.334;2024-01-16T13:05:55;4.13;;;1.30;;
60588;SDS011;46421;48.610;9.334;2024-01-16T13:08:21;4.95;;;1.40;;
60588;SDS011;46421;48.610;9.334;2024-01-16T13:10:51;3.63;;;1.40;;
60588;SDS011;46421;48.610;9.334;2024-01-16T13:13:27;3.38;;;1.13;;
60588;SDS011;46421;48.610;9.334;2024-01-16T13:15:53;5.25;;;1.60;;
60588;SDS011;46421;48.610;9.334;2024-01-16T13:18:22;4.30;;;1.83;;
60588;SDS011;46421;48.610;9.334;2024-01-16T13:20:51;4.63;;;1.35;;
60588;SDS011;46421;48.610;9.334;2024-01-16T13:23:18;6.55;;;1.92;;
60588;SDS011;46421;48.610;9.334;2024-01-16T13:25:45;6.63;;;1.75;;
60588;SDS011;46421;48.610;9.334;2024-01-16T13:30:41;4.10;;;1.30;;
60588;SDS011;46421;48.610;9.334;2024-01-16T13:33:07;5.60;;;1.77;;
60588;SDS011;46421;48.610;9.334;2024-01-16T13:35:37;5.82;;;1.58;;
60588;SDS011;46421;48.610;9.334;2024-01-16T13:38:05;4.18;;;1.33;;
60588;SDS011;46421;48.610;9.334;2024-01-16T13:40:31;3.45;;;1.52;;
60588;SDS011;46421;48.610;9.334;2024-01-16T13:42:56;4.45;;;1.45;;
60588;SDS011;46421;48.610;9.334;2024-01-16T13:45:22;5.47;;;1.67;;
60588;SDS011;46421;48.610;9.334;2024-01-16T13:47:47;3.33;;;1.30;;
60588;SDS011;46421;48.610;9.334;2024-01-16T13:50:13;4.65;;;1.40;;
60588;SDS011;46421;48.610;9.334;2024-01-16T13:52:38;4.87;;;1.50;;
60588;SDS011;46421;48.610;9.334;2024-01-16T13:55:05;3.90;;;1.60;;
60588;SDS011;46421;48.610;9.334;2024-01-16T13:57:31;4.68;;;1.45;;
60588;SDS011;46421;48.610;9.334;2024-01-16T13:59:57;3.70;;;1.33;;
60588;SDS011;46421;48.610;9.334;2024-01-16T14:02:23;3.75;;;1.02;;
60588;SDS011;46421;48.610;9.334;2024-01-16T14:04:48;3.55;;;1.45;;
60588;SDS011;46421;48.610;9.334;2024-01-16T14:07:14;4.97;;;1.75;;
60588;SDS011;46421;48.610;9.334;2024-01-16T14:09:40;3.30;;;1.45;;
60588;SDS011;46421;48.610;9.334;2024-01-16T14:12:08;2.85;;;1.20;;
60588;SDS011;46421;48.610;9.334;2024-01-16T14:14:34;2.90;;;1.00;;
60588;SDS011;46421;48.610;9.334;2024-01-16T14:17:00;3.17;;;1.10;;
60588;SDS011;46421;48.610;9.334;2024-01-16T14:19:26;4.25;;;1.58;;
60588;SDS011;46421;48.610;9.334;2024-01-16T14:21:53;6.07;;;1.52;;
60588;SDS011;46421;48.610;9.334;2024-01-16T14:24:18;3.15;;;1.02;;
60588;SDS011;46421;48.610;9.334;2024-01-16T14:26:44;3.90;;;1.50;;
60588;SDS011;46421;48.610;9.334;2024-01-16T14:29:10;3.05;;;1.17;;
60588;SDS011;46421;48.610;9.334;2024-01-16T14:31:36;6.90;;;1.75;;
60588;SDS011;46421;48.610;9.334;2024-01-16T14:34:01;4.10;;;1.08;;
60588;SDS011;46421;48.610;9.334;2024-01-16T14:36:27;4.80;;;1.30;;
60588;SDS011;46421;48.610;9.334;2024-01-16T14:38:52;8.70;;;1.80;;
60588;SDS011;46421;48.610;9.334;2024-01-16T14:41:17;4.60;;;1.67;;
60588;SDS011;46421;48.610;9.334;2024-01-16T14:43:43;3.72;;;1.50;;
60588;SDS011;46421;48.610;9.334;2024-01-16T14:46:09;6.03;;;1.40;;
60588;SDS011;46421;48.610;9.334;2024-01-16T14:48:43;4.47;;;1.27;;
60588;SDS011;46421;48.610;9.334;2024-01-16T14:51:09;4.25;;;1.20;;
60588;SDS011;46421;48.610;9.334;2024-01-16T14:53:35;6.28;;;1.42;;
60588;SDS011;46421;48.610;9.334;2024-01-16T14:56:01;3.25;;;1.17;;